Time;durP1;ratioP1;P1;durP2;ratioP2;P2;SDS_P1;SDS_P2;PMS_P1;PMS_P2;Temp;Humidity;BMP_temperature;BMP_pressure;BME280_temperature;BME280_humidity;BME280_pressure;Samples;Min_cycle;Max_cycle;Signal;HPM_P1;HPM_P2
2023/07/11 00:02:25;;;;;;;12.07;8.15;;;;;;;;;;5033694;28;20280;-58
2023/07/11 00:04:50;;;;;;;9.82;8.82;;;;;;;;;;5015967;28;20024;-58
2023/07/11 00:07:16;;;;;;;9.63;8.63;;;;;;;;;;5032795;28;20030;-58
2023/07/11 00:09:44;;;;;;;10.60;8.10;;;;;;;;;;5033610;28;20025;-62
2023/07/11 00:12:10;;;;;;;9.30;7.50;;;;;;;;;;5016282;28;20035;-62
2023/07/11 00:14:36;;;;;;;12.02;7.72;;;;;;;;;;5033507;28;20537;-58
2023/07/11 00:17:03;;;;;;;8.38;6.95;;;;;;;;;;5015856;28;20048;-58
2023/07/11 00:19:29;;;;;;;8.40;7.15;;;;;;;;;;5033585;28;20116;-58
2023/07/11 00:21:55;;;;;;;9.40;7.53;;;;;;;;;;5033499;28;20107;-58
2023/07/11 00:24:20;;;;;;;8.07;7.13;;;;;;;;;;5033491;28;20026;-62
2023/07/11 00:26:45;;;;;;;8.57;7.40;;;;;;;;;;5033585;28;20361;-61
2023/07/11 00:29:29;;;;;;;7.82;7.03;;;;;;;;;;5015754;28;20026;-61
2023/07/11 00:31:54;;;;;;;8.20;7.45;;;;;;;;;;5015914;28;20101;-62
2023/07/11 00:34:20;;;;;;;9.43;7.68;;;;;;;;;;5033398;28;20537;-61
2023/07/11 00:36:45;;;;;;;8.18;7.05;;;;;;;;;;5024951;28;20474;-61
2023/07/11 00:39:12;;;;;;;7.70;6.95;;;;;;;;;;5000191;28;20021;-61
2023/07/11 00:41:38;;;;;;;8.23;6.97;;;;;;;;;;5017656;28;20113;-61
2023/07/11 00:44:13;;;;;;;8.70;7.10;;;;;;;;;;5000176;28;20488;-56
2023/07/11 00:46:39;;;;;;;10.48;7.10;;;;;;;;;;5017889;28;20036;-57
2023/07/11 00:49:05;;;;;;;7.70;6.95;;;;;;;;;;4983957;28;20045;-57
2023/07/11 00:51:33;;;;;;;8.10;7.30;;;;;;;;;;5017287;28;20069;-57
2023/07/11 00:54:00;;;;;;;7.28;6.57;;;;;;;;;;5017077;28;20030;-57
2023/07/11 00:56:27;;;;;;;7.45;6.55;;;;;;;;;;5016921;28;20520;-58
2023/07/11 00:58:53;;;;;;;8.38;6.55;;;;;;;;;;5000061;28;20405;-58
2023/07/11 01:01:19;;;;;;;12.68;6.60;;;;;;;;;;5017498;28;20038;-57
2023/07/11 01:03:46;;;;;;;9.02;6.75;;;;;;;;;;4999595;28;20041;-57
2023/07/11 01:06:12;;;;;;;8.52;6.43;;;;;;;;;;5017281;28;20097;-57
2023/07/11 01:08:38;;;;;;;8.23;6.18;;;;;;;;;;5017198;28;20030;-57
2023/07/11 01:11:03;;;;;;;6.60;5.97;;;;;;;;;;4999654;28;20425;-57
2023/07/11 01:13:29;;;;;;;7.47;6.25;;;;;;;;;;5017271;28;20507;-57
2023/07/11 01:15:54;;;;;;;7.85;5.60;;;;;;;;;;5017090;28;20042;-57
2023/07/11 01:18:20;;;;;;;7.60;5.90;;;;;;;;;;4999489;28;20381;-57
2023/07/11 01:20:45;;;;;;;10.43;6.20;;;;;;;;;;5017069;28;20453;-57
2023/07/11 01:23:11;;;;;;;8.90;5.75;;;;;;;;;;5016910;28;20439;-62
2023/07/11 01:25:38;;;;;;;9.07;6.05;;;;;;;;;;5016976;28;20025;-62
2023/07/11 01:28:03;;;;;;;8.07;6.10;;;;;;;;;;4999208;28;20021;-62
2023/07/11 01:30:29;;;;;;;9.10;5.80;;;;;;;;;;5016885;28;20051;-59
2023/07/11 01:32:56;;;;;;;6.25;5.18;;;;;;;;;;4998949;28;20477;-58
2023/07/11 01:35:21;;;;;;;8.10;5.82;;;;;;;;;;5016646;28;20030;-58
2023/07/11 01:37:47;;;;;;;5.60;5.10;;;;;;;;;;4999042;28;20037;-58
2023/07/11 01:40:12;;;;;;;8.35;5.45;;;;;;;;;;5016279;28;20033;-58
2023/07/11 01:42:39;;;;;;;6.18;5.32;;;;;;;;;;4998873;28;20042;-58
2023/07/11 01:45:05;;;;;;;6.07;5.53;;;;;;;;;;5016833;28;20115;-58
2023/07/11 01:47:30;;;;;;;6.00;5.45;;;;;;;;;;5015661;28;20062;-58
2023/07/11 01:49:57;;;;;;;5.50;4.90;;;;;;;;;;5016612;28;20057;-58
2023/07/11 01:52:24;;;;;;;7.03;5.45;;;;;;;;;;5016612;28;20026;-58
2023/07/11 01:54:50;;;;;;;7.43;5.43;;;;;;;;;;5016283;28;20357;-58
2023/07/11 01:57:16;;;;;;;7.57;5.75;;;;;;;;;;5016229;28;20037;-58
2023/07/11 01:59:41;;;;;;;6.45;4.63;;;;;;;;;;4998638;28;20029;-58
2023/07/11 02:02:08;;;;;;;6.38;5.78;;;;;;;;;;5016427;28;20036;-58
2023/07/11 02:04:34;;;;;;;5.63;5.10;;;;;;;;;;5015855;28;20474;-61
2023/07/11 02:06:59;;;;;;;6.93;5.38;;;;;;;;;;4998301;28;20110;-61
2023/07/11 02:09:25;;;;;;;5.65;5.07;;;;;;;;;;4998204;28;20470;-60
2023/07/11 02:11:50;;;;;;;6.85;4.88;;;;;;;;;;5015719;28;20450;-61
2023/07/11 02:14:20;;;;;;;5.88;4.85;;;;;;;;;;4998226;28;20267;-61
2023/07/11 02:16:46;;;;;;;5.50;5.07;;;;;;;;;;5015775;28;20029;-61
2023/07/11 02:19:16;;;;;;;6.18;4.80;;;;;;;;;;5016284;28;20110;-61
2023/07/11 02:21:41;;;;;;;5.85;5.35;;;;;;;;;;4998235;28;20041;-61
2023/07/11 02:24:09;;;;;;;5.63;4.97;;;;;;;;;;5015697;28;20037;-61
2023/07/11 02:26:35;;;;;;;5.55;5.05;;;;;;;;;;5016017;28;20077;-61
2023/07/11 02:29:00;;;;;;;5.18;4.55;;;;;;;;;;5015763;28;20387;-61
2023/07/11 02:31:26;;;;;;;5.85;4.65;;;;;;;;;;5015555;28;20102;-62
2023/07/11 02:33:57;;;;;;;5.03;4.63;;;;;;;;;;5015587;28;20037;-61
2023/07/11 02:36:32;;;;;;;6.07;5.00;;;;;;;;;;4997932;28;20034;-61
2023/07/11 02:38:58;;;;;;;5.53;5.03;;;;;;;;;;4997848;28;20041;-61
2023/07/11 02:41:24;;;;;;;6.63;5.25;;;;;;;;;;5015300;28;20040;-61
2023/07/11 02:43:49;;;;;;;5.60;5.07;;;;;;;;;;4997895;28;20026;-61
2023/07/11 02:46:15;;;;;;;4.80;4.43;;;;;;;;;;5018884;28;20233;-57
2023/07/11 02:48:56;;;;;;;7.70;5.40;;;;;;;;;;5035166;28;20025;-61
2023/07/11 02:51:21;;;;;;;5.93;4.15;;;;;;;;;;5035208;28;20473;-61
2023/07/11 02:53:47;;;;;;;6.30;5.15;;;;;;;;;;5034806;28;20041;-61
2023/07/11 02:56:12;;;;;;;7.18;4.32;;;;;;;;;;5034759;28;20025;-61
2023/07/11 02:58:39;;;;;;;6.32;4.75;;;;;;;;;;5034803;28;20029;-61
2023/07/11 03:01:04;;;;;;;5.28;4.75;;;;;;;;;;5034893;28;20041;-61
2023/07/11 03:03:31;;;;;;;5.47;4.95;;;;;;;;;;5034880;28;20079;-61
2023/07/11 03:05:57;;;;;;;6.15;4.90;;;;;;;;;;5034976;28;20032;-61
2023/07/11 03:08:22;;;;;;;5.45;4.95;;;;;;;;;;5034736;28;20669;-61
2023/07/11 03:10:48;;;;;;;7.05;5.18;;;;;;;;;;5034726;28;20033;-61
2023/07/11 03:13:13;;;;;;;5.68;5.18;;;;;;;;;;5033486;28;20032;-58
2023/07/11 03:15:39;;;;;;;5.68;5.00;;;;;;;;;;5034382;28;20045;-57
2023/07/11 03:18:04;;;;;;;8.40;5.00;;;;;;;;;;5034697;28;20044;-57
2023/07/11 03:20:30;;;;;;;8.63;5.05;;;;;;;;;;5034677;28;20026;-57
2023/07/11 03:22:55;;;;;;;6.07;5.35;;;;;;;;;;5034499;28;20033;-57
2023/07/11 03:25:20;;;;;;;6.93;4.72;;;;;;;;;;5016535;28;20389;-58
2023/07/11 03:27:46;;;;;;;6.05;4.53;;;;;;;;;;5034150;28;20033;-57
2023/07/11 03:30:11;;;;;;;6.72;4.80;;;;;;;;;;5033868;28;20026;-61
2023/07/11 03:32:37;;;;;;;5.60;4.90;;;;;;;;;;5034393;28;20025;-58
2023/07/11 03:35:02;;;;;;;6.28;4.40;;;;;;;;;;5034181;28;20021;-58
2023/07/11 03:37:27;;;;;;;6.97;4.93;;;;;;;;;;5032660;28;20071;-57
2023/07/11 03:39:53;;;;;;;6.15;4.38;;;;;;;;;;5034405;28;20026;-57
2023/07/11 03:42:18;;;;;;;5.32;4.72;;;;;;;;;;5033687;28;20442;-57
2023/07/11 03:44:44;;;;;;;6.03;4.60;;;;;;;;;;5033979;28;20029;-57
2023/07/11 03:47:10;;;;;;;5.00;3.97;;;;;;;;;;5034159;28;20361;-57
2023/07/11 03:49:35;;;;;;;4.57;4.22;;;;;;;;;;5033880;28;20120;-57
2023/07/11 03:52:01;;;;;;;5.07;4.18;;;;;;;;;;5033750;28;20029;-57
2023/07/11 03:54:32;;;;;;;4.32;4.03;;;;;;;;;;5033948;28;20108;-57
2023/07/11 03:56:57;;;;;;;4.95;4.55;;;;;;;;;;5032899;28;20103;-58
2023/07/11 03:59:23;;;;;;;4.65;4.25;;;;;;;;;;5016446;28;20029;-57
2023/07/11 04:01:48;;;;;;;4.38;4.07;;;;;;;;;;5034229;28;20381;-57
2023/07/11 04:04:14;;;;;;;4.20;3.90;;;;;;;;;;5034097;28;20041;-57
2023/07/11 04:06:39;;;;;;;4.95;4.40;;;;;;;;;;5033657;28;20041;-58
2023/07/11 04:09:04;;;;;;;4.18;3.85;;;;;;;;;;5033920;28;20037;-57
2023/07/11 04:11:30;;;;;;;4.55;4.15;;;;;;;;;;5032540;28;20029;-57
2023/07/11 04:13:55;;;;;;;4.97;3.70;;;;;;;;;;5033112;28;20021;-57
2023/07/11 04:16:20;;;;;;;4.55;4.25;;;;;;;;;;5033745;28;20539;-57
2023/07/11 04:18:47;;;;;;;4.05;3.65;;;;;;;;;;5034363;28;20037;-57
2023/07/11 04:21:12;;;;;;;4.28;3.88;;;;;;;;;;5014976;28;20511;-57
2023/07/11 04:23:38;;;;;;;5.10;3.95;;;;;;;;;;5032560;28;20033;-58
2023/07/11 04:26:03;;;;;;;4.70;4.05;;;;;;;;;;5031508;28;20541;-57
2023/07/11 04:28:28;;;;;;;4.22;3.85;;;;;;;;;;5031744;28;20489;-57
2023/07/11 04:30:54;;;;;;;4.95;4.53;;;;;;;;;;5014197;28;20504;-57
2023/07/11 04:33:19;;;;;;;4.30;3.90;;;;;;;;;;5031945;28;20369;-66
2023/07/11 04:35:44;;;;;;;5.05;4.30;;;;;;;;;;5032116;28;20034;-55
2023/07/11 04:38:10;;;;;;;3.58;3.28;;;;;;;;;;5032199;28;20029;-56
2023/07/11 04:40:35;;;;;;;4.53;3.97;;;;;;;;;;5031999;28;20116;-56
2023/07/11 04:43:01;;;;;;;3.72;3.42;;;;;;;;;;5033559;28;20107;-56
2023/07/11 04:45:26;;;;;;;6.88;3.88;;;;;;;;;;5033948;28;20021;-56
2023/07/11 04:47:52;;;;;;;6.15;3.97;;;;;;;;;;5033295;28;20072;-56
2023/07/11 04:50:17;;;;;;;3.63;3.33;;;;;;;;;;5033515;28;20078;-56
2023/07/11 04:52:44;;;;;;;3.85;3.53;;;;;;;;;;5026780;28;20096;-56
2023/07/11 04:55:09;;;;;;;4.50;4.05;;;;;;;;;;5005452;28;20402;-56
2023/07/11 04:57:35;;;;;;;4.25;3.83;;;;;;;;;;5014668;28;20125;-56
2023/07/11 05:00:00;;;;;;;4.10;3.20;;;;;;;;;;5022162;28;20056;-56
2023/07/11 05:02:26;;;;;;;3.38;3.03;;;;;;;;;;5021158;28;20097;-56
2023/07/11 05:04:52;;;;;;;4.63;3.53;;;;;;;;;;4996099;28;20034;-56
2023/07/11 05:07:18;;;;;;;4.03;3.33;;;;;;;;;;5013803;28;20491;-56
2023/07/11 05:09:43;;;;;;;3.78;3.38;;;;;;;;;;5013583;28;20030;-56
2023/07/11 05:12:10;;;;;;;4.15;3.72;;;;;;;;;;5013707;28;20335;-56
2023/07/11 05:14:36;;;;;;;3.97;3.58;;;;;;;;;;5012824;28;20034;-57
2023/07/11 05:17:01;;;;;;;4.13;3.17;;;;;;;;;;5016684;28;20030;-57
2023/07/11 05:19:27;;;;;;;3.60;3.30;;;;;;;;;;5029833;28;20038;-57
2023/07/11 05:21:52;;;;;;;5.50;3.30;;;;;;;;;;5033551;28;20394;-57
2023/07/11 05:24:17;;;;;;;3.40;3.10;;;;;;;;;;5035077;28;20478;-57
2023/07/11 05:26:43;;;;;;;3.28;3.08;;;;;;;;;;5036366;28;20025;-57
2023/07/11 05:29:08;;;;;;;3.65;3.35;;;;;;;;;;5035840;28;20461;-57
2023/07/11 05:31:36;;;;;;;4.63;3.28;;;;;;;;;;5036485;28;20030;-57
2023/07/11 05:34:02;;;;;;;3.55;3.25;;;;;;;;;;5018997;28;20077;-57
2023/07/11 05:36:31;;;;;;;4.07;3.67;;;;;;;;;;5036430;28;20119;-57
2023/07/11 05:38:58;;;;;;;3.13;2.88;;;;;;;;;;5036412;28;20049;-57
2023/07/11 05:41:23;;;;;;;4.72;3.50;;;;;;;;;;5036946;28;20079;-57
2023/07/11 05:43:50;;;;;;;3.55;3.35;;;;;;;;;;5036298;28;20113;-57
2023/07/11 05:46:15;;;;;;;3.63;3.33;;;;;;;;;;5036538;28;20029;-57
2023/07/11 05:48:40;;;;;;;4.00;3.67;;;;;;;;;;5016314;28;20030;-61
2023/07/11 05:51:07;;;;;;;3.88;3.55;;;;;;;;;;5021531;28;20022;-61
2023/07/11 05:53:33;;;;;;;3.42;3.22;;;;;;;;;;5036173;28;20044;-61
2023/07/11 05:55:58;;;;;;;3.45;3.15;;;;;;;;;;5034585;28;20457;-61
2023/07/11 05:58:25;;;;;;;4.95;3.15;;;;;;;;;;5034636;28;20076;-61
2023/07/11 06:00:53;;;;;;;3.75;3.45;;;;;;;;;;5034757;28;20034;-61
2023/07/11 06:03:19;;;;;;;4.00;3.67;;;;;;;;;;5016709;28;20025;-61
2023/07/11 06:05:45;;;;;;;3.50;3.30;;;;;;;;;;5033218;28;20021;-61
2023/07/11 06:08:12;;;;;;;3.95;3.40;;;;;;;;;;5013981;28;20474;-61
2023/07/11 06:10:37;;;;;;;3.80;3.58;;;;;;;;;;5030457;28;20053;-61
2023/07/11 06:13:03;;;;;;;4.22;3.53;;;;;;;;;;5013617;28;20476;-62
2023/07/11 06:15:28;;;;;;;3.63;3.33;;;;;;;;;;5031046;28;20079;-62
2023/07/11 06:17:53;;;;;;;3.80;3.45;;;;;;;;;;5013492;28;20385;-61
2023/07/11 06:20:19;;;;;;;3.90;3.38;;;;;;;;;;5031307;28;20037;-61
2023/07/11 06:22:45;;;;;;;3.90;3.67;;;;;;;;;;5032295;28;20424;-61
2023/07/11 06:25:10;;;;;;;3.67;3.47;;;;;;;;;;5032717;28;20112;-61
2023/07/11 06:27:36;;;;;;;4.82;3.75;;;;;;;;;;5033589;28;20037;-61
2023/07/11 06:30:01;;;;;;;3.88;3.65;;;;;;;;;;5034272;28;20026;-61
2023/07/11 06:32:27;;;;;;;4.45;4.15;;;;;;;;;;5034250;28;20087;-62
2023/07/11 06:34:52;;;;;;;4.63;3.65;;;;;;;;;;5033966;28;20490;-62
2023/07/11 06:37:17;;;;;;;5.57;4.35;;;;;;;;;;5034235;28;20040;-62
2023/07/11 06:39:44;;;;;;;3.42;3.22;;;;;;;;;;5016556;28;20033;-61
2023/07/11 06:42:10;;;;;;;3.63;3.33;;;;;;;;;;5034216;28;20445;-62
2023/07/11 06:44:36;;;;;;;4.78;3.85;;;;;;;;;;5016268;28;20026;-62
2023/07/11 06:47:01;;;;;;;6.32;4.03;;;;;;;;;;5034027;28;20035;-61
2023/07/11 06:49:27;;;;;;;4.28;3.88;;;;;;;;;;5034245;28;20025;-62
2023/07/11 06:51:52;;;;;;;3.88;3.60;;;;;;;;;;5016237;28;20030;-62
2023/07/11 06:54:17;;;;;;;4.20;3.80;;;;;;;;;;5027673;28;20067;-57
2023/07/11 06:56:43;;;;;;;5.85;3.83;;;;;;;;;;5017344;28;20128;-57
2023/07/11 06:59:09;;;;;;;4.05;3.75;;;;;;;;;;5014761;28;20030;-57
2023/07/11 07:01:34;;;;;;;4.18;3.78;;;;;;;;;;5014697;28;20412;-57
2023/07/11 07:04:00;;;;;;;4.55;3.78;;;;;;;;;;5014517;28;20029;-57
2023/07/11 07:06:26;;;;;;;4.60;3.50;;;;;;;;;;5014515;28;20488;-57
2023/07/11 07:08:51;;;;;;;3.95;3.60;;;;;;;;;;5013836;28;20022;-57
2023/07/11 07:11:16;;;;;;;4.80;4.40;;;;;;;;;;5013880;28;20402;-57
2023/07/11 07:13:42;;;;;;;3.72;3.42;;;;;;;;;;5013785;28;20049;-57
2023/07/11 07:16:07;;;;;;;4.53;3.78;;;;;;;;;;5013516;28;20041;-57
2023/07/11 07:18:35;;;;;;;4.20;3.88;;;;;;;;;;5013767;28;20491;-57
2023/07/11 07:21:01;;;;;;;4.57;4.18;;;;;;;;;;5013625;28;20157;-57
2023/07/11 07:23:27;;;;;;;4.45;4.03;;;;;;;;;;5013559;28;20030;-57
2023/07/11 07:25:53;;;;;;;5.03;4.10;;;;;;;;;;5013644;28;20018;-57
2023/07/11 07:28:19;;;;;;;4.32;3.63;;;;;;;;;;5013575;28;20065;-57
2023/07/11 07:30:48;;;;;;;4.65;3.80;;;;;;;;;;5013622;28;20361;-57
2023/07/11 07:33:14;;;;;;;4.40;4.00;;;;;;;;;;5013501;28;20698;-57
2023/07/11 07:35:40;;;;;;;4.78;3.90;;;;;;;;;;5012323;28;20033;-57
2023/07/11 07:38:05;;;;;;;4.35;4.10;;;;;;;;;;5013457;28;20639;-57
2023/07/11 07:40:30;;;;;;;4.72;3.67;;;;;;;;;;5013465;28;20030;-57
2023/07/11 07:42:56;;;;;;;2.38;2.17;;;;;;;;;;5013534;28;20042;-57
2023/07/11 07:45:21;;;;;;;4.57;3.88;;;;;;;;;;5011706;28;20038;-57
2023/07/11 07:47:46;;;;;;;4.32;3.72;;;;;;;;;;5013246;28;20493;-57
2023/07/11 07:50:12;;;;;;;4.22;3.85;;;;;;;;;;5013461;28;20057;-57
2023/07/11 07:52:37;;;;;;;3.83;3.53;;;;;;;;;;5013156;28;20532;-57
2023/07/11 07:55:02;;;;;;;4.88;3.75;;;;;;;;;;5013108;28;20026;-57
2023/07/11 07:57:28;;;;;;;3.97;3.58;;;;;;;;;;5013047;28;20038;-57
2023/07/11 07:59:53;;;;;;;3.95;3.65;;;;;;;;;;5013727;28;20025;-57
2023/07/11 08:02:19;;;;;;;3.22;3.03;;;;;;;;;;4995344;28;20030;-57
2023/07/11 08:04:47;;;;;;;4.10;3.80;;;;;;;;;;5011657;28;20039;-57
2023/07/11 08:07:13;;;;;;;3.63;3.33;;;;;;;;;;5012886;28;20462;-57
2023/07/11 08:09:38;;;;;;;3.70;3.40;;;;;;;;;;5012897;28;20099;-57
2023/07/11 08:12:05;;;;;;;5.32;4.88;;;;;;;;;;5012899;28;20034;-57
2023/07/11 08:14:34;;;;;;;3.72;3.45;;;;;;;;;;5012841;28;20096;-57
2023/07/11 08:17:00;;;;;;;4.40;3.53;;;;;;;;;;4995370;28;20398;-57
2023/07/11 08:19:25;;;;;;;5.47;4.03;;;;;;;;;;5012906;28;20049;-57
2023/07/11 08:21:52;;;;;;;4.60;4.20;;;;;;;;;;5011511;28;20026;-57
2023/07/11 08:24:17;;;;;;;3.13;2.92;;;;;;;;;;5012750;28;20022;-57
2023/07/11 08:26:42;;;;;;;3.70;3.40;;;;;;;;;;5012824;28;20100;-57
2023/07/11 08:29:08;;;;;;;4.53;3.28;;;;;;;;;;5011424;28;20468;-57
2023/07/11 08:31:33;;;;;;;3.78;3.42;;;;;;;;;;5012736;28;20030;-57
2023/07/11 08:33:59;;;;;;;3.85;3.58;;;;;;;;;;5011429;28;20092;-57
2023/07/11 08:36:24;;;;;;;3.70;2.95;;;;;;;;;;5012737;28;20501;-57
2023/07/11 08:38:49;;;;;;;3.85;3.55;;;;;;;;;;5012298;28;20141;-57
2023/07/11 08:41:24;;;;;;;3.90;3.60;;;;;;;;;;5014297;28;20057;-57
2023/07/11 08:43:51;;;;;;;3.95;3.67;;;;;;;;;;5013820;28;20038;-57
2023/07/11 08:46:18;;;;;;;4.00;3.67;;;;;;;;;;5014185;28;20022;-57
2023/07/11 08:48:44;;;;;;;3.80;3.50;;;;;;;;;;5013684;28;20026;-57
2023/07/11 08:51:15;;;;;;;4.00;3.60;;;;;;;;;;5013405;28;20033;-57
2023/07/11 08:53:43;;;;;;;4.25;3.67;;;;;;;;;;5012165;28;20409;-57
2023/07/11 08:56:20;;;;;;;6.75;4.18;;;;;;;;;;5014196;28;20477;-57
2023/07/11 08:58:48;;;;;;;3.78;3.47;;;;;;;;;;5052662;23;20068;-57
2023/07/11 09:01:35;;;;;;;4.93;3.25;;;;;;;;;;5036027;28;20029;-61
2023/07/11 09:04:03;;;;;;;3.50;3.20;;;;;;;;;;5036273;28;20053;-61
2023/07/11 09:06:37;;;;;;;3.58;3.28;;;;;;;;;;5037726;28;20109;-61
2023/07/11 09:09:04;;;;;;;3.28;3.08;;;;;;;;;;5037474;28;20037;-61
2023/07/11 09:11:34;;;;;;;4.28;3.90;;;;;;;;;;5019057;28;20360;-61
2023/07/11 09:14:00;;;;;;;4.72;3.53;;;;;;;;;;5037047;28;20484;-61
2023/07/11 09:16:33;;;;;;;4.07;2.95;;;;;;;;;;5019161;28;20033;-61
2023/07/11 09:19:04;;;;;;;3.80;3.45;;;;;;;;;;5036709;28;20065;-61
2023/07/11 09:21:42;;;;;;;3.75;3.50;;;;;;;;;;5018892;28;20428;-61
2023/07/11 09:24:19;;;;;;;3.42;3.20;;;;;;;;;;5036837;28;20033;-61
2023/07/11 09:26:47;;;;;;;3.45;3.15;;;;;;;;;;5036154;28;20028;-61
2023/07/11 09:29:13;;;;;;;3.20;2.92;;;;;;;;;;5036370;28;20057;-61
2023/07/11 09:31:44;;;;;;;6.28;3.22;;;;;;;;;;5036762;28;20083;-61
2023/07/11 09:34:19;;;;;;;6.00;3.40;;;;;;;;;;5036675;28;20033;-61
2023/07/11 09:36:46;;;;;;;3.28;2.97;;;;;;;;;;5036655;28;20033;-61
2023/07/11 09:39:11;;;;;;;2.92;2.80;;;;;;;;;;5036613;28;20108;-61
2023/07/11 09:42:09;;;;;;;3.70;3.40;;;;;;;;;;5036572;28;20069;-61
2023/07/11 09:44:35;;;;;;;3.90;3.28;;;;;;;;;;4981943;28;20048;-61
2023/07/11 09:47:30;;;;;;;3.28;3.05;;;;;;;;;;5036679;28;20029;-62
2023/07/11 09:49:56;;;;;;;3.45;2.97;;;;;;;;;;5031647;28;20046;-62
2023/07/11 09:52:26;;;;;;;3.88;3.17;;;;;;;;;;5035857;28;20035;-62
2023/07/11 09:54:51;;;;;;;;;;;;;;;;;;5036185;28;20038;-62
2023/07/11 09:57:17;;;;;;;6.40;3.13;;;;;;;;;;5018294;28;19909;-62
2023/07/11 09:59:58;;;;;;;3.88;3.60;;;;;;;;;;5036112;28;20042;-62
2023/07/11 10:02:23;;;;;;;4.05;3.08;;;;;;;;;;5036459;28;20068;-62
2023/07/11 10:04:51;;;;;;;3.38;3.08;;;;;;;;;;5035770;28;20069;-62
2023/07/11 10:07:19;;;;;;;2.97;2.83;;;;;;;;;;5035598;28;20113;-62
2023/07/11 10:09:49;;;;;;;3.60;2.53;;;;;;;;;;5028843;28;20038;-62
2023/07/11 10:12:15;;;;;;;4.15;3.10;;;;;;;;;;5020796;28;20508;-62
2023/07/11 10:14:45;;;;;;;4.15;3.20;;;;;;;;;;5015895;28;20382;-62
2023/07/11 10:17:18;;;;;;;3.28;2.97;;;;;;;;;;5016094;28;20543;-62
2023/07/11 10:19:46;;;;;;;4.60;3.63;;;;;;;;;;5014930;28;20060;-62
2023/07/11 10:22:19;;;;;;;3.58;3.17;;;;;;;;;;5015780;28;20052;-62
2023/07/11 10:24:44;;;;;;;3.28;3.08;;;;;;;;;;5019522;28;20037;-62
2023/07/11 10:27:13;;;;;;;3.38;3.08;;;;;;;;;;5021632;28;20492;-62
2023/07/11 10:29:49;;;;;;;3.22;3.03;;;;;;;;;;5019513;28;20046;-62
2023/07/11 10:32:20;;;;;;;4.43;3.53;;;;;;;;;;5020987;28;20076;-62
2023/07/11 10:34:57;;;;;;;3.78;3.38;;;;;;;;;;5015273;28;20505;-62
2023/07/11 10:37:31;;;;;;;2.85;2.65;;;;;;;;;;5015171;28;20040;-62
2023/07/11 10:40:01;;;;;;;3.00;2.80;;;;;;;;;;5017105;28;20124;-62
2023/07/11 10:42:42;;;;;;;3.35;3.13;;;;;;;;;;5026413;28;20108;-62
2023/07/11 10:45:10;;;;;;;2.85;2.75;;;;;;;;;;5034793;28;20033;-62
2023/07/11 10:47:38;;;;;;;5.05;3.10;;;;;;;;;;5034711;28;20171;-62
2023/07/11 10:50:08;;;;;;;3.30;3.10;;;;;;;;;;5034513;28;20381;-62
2023/07/11 10:52:34;;;;;;;3.35;3.15;;;;;;;;;;5034809;28;20068;-62
2023/07/11 10:55:05;;;;;;;4.68;2.75;;;;;;;;;;5034499;28;20124;-62
2023/07/11 10:57:30;;;;;;;3.00;2.60;;;;;;;;;;5034542;28;20040;-62
2023/07/11 10:59:56;;;;;;;3.45;3.25;;;;;;;;;;5026839;28;20049;-62
2023/07/11 11:02:27;;;;;;;2.90;2.70;;;;;;;;;;5014948;28;20025;-61
2023/07/11 11:05:02;;;;;;;2.55;2.45;;;;;;;;;;5015017;28;20397;-62
2023/07/11 11:07:27;;;;;;;2.53;2.42;;;;;;;;;;5021380;28;20453;-62
2023/07/11 11:09:52;;;;;;;2.75;2.55;;;;;;;;;;5032320;28;20029;-62
2023/07/11 11:12:22;;;;;;;3.33;3.07;;;;;;;;;;5030644;28;20021;-62
2023/07/11 11:14:54;;;;;;;2.28;2.10;;;;;;;;;;5029056;28;20302;-61
2023/07/11 11:17:37;;;;;;;3.35;2.60;;;;;;;;;;5032317;28;20484;-61
2023/07/11 11:20:17;;;;;;;3.05;2.85;;;;;;;;;;5032552;28;20036;-61
2023/07/11 11:22:46;;;;;;;4.72;2.83;;;;;;;;;;5033542;28;20025;-61
2023/07/11 11:25:34;;;;;;;2.75;2.65;;;;;;;;;;5034063;28;20036;-61
2023/07/11 11:28:14;;;;;;;3.28;2.17;;;;;;;;;;5033829;28;20037;-61
2023/07/11 11:30:58;;;;;;;2.80;2.60;;;;;;;;;;5033993;28;20021;-61
2023/07/11 11:33:31;;;;;;;3.05;2.85;;;;;;;;;;5033868;28;20469;-61
2023/07/11 11:36:04;;;;;;;3.17;2.80;;;;;;;;;;5033860;28;20030;-61
2023/07/11 11:38:38;;;;;;;2.50;2.30;;;;;;;;;;5033811;28;20034;-61
2023/07/11 11:41:08;;;;;;;2.40;2.20;;;;;;;;;;5033793;28;20053;-61
2023/07/11 11:43:34;;;;;;;2.15;2.05;;;;;;;;;;5033805;28;20032;-61
2023/07/11 11:46:01;;;;;;;2.40;2.30;;;;;;;;;;5033913;28;20030;-61
2023/07/11 11:52:02;;;;;;;2.80;2.55;;;;;;;;;;5033973;28;20475;-62
2023/07/11 11:58:03;;;;;;;2.40;2.20;;;;;;;;;;5033863;28;20492;-61
2023/07/11 12:40:58;;;;;;;1.70;1.60;;;;;;;;;;4996270;28;20048;-61
2023/07/11 12:47:01;;;;;;;2.15;2.05;;;;;;;;;;4996175;28;20069;-61
2023/07/11 12:53:03;;;;;;;2.40;2.20;;;;;;;;;;5007010;28;20065;-62
2023/07/11 12:56:16;;;;;;;2.40;2.20;;;;;;;;;;5015626;28;20034;-61
2023/07/11 12:58:42;;;;;;;2.08;1.98;;;;;;;;;;5015334;28;20050;-61
2023/07/11 13:01:12;;;;;;;2.85;2.05;;;;;;;;;;5015262;28;20032;-61
2023/07/11 13:03:38;;;;;;;2.17;1.98;;;;;;;;;;5015891;28;20073;-61
2023/07/11 13:06:19;;;;;;;1.92;1.83;;;;;;;;;;5017601;28;20056;-57
2023/07/11 13:08:45;;;;;;;2.22;1.95;;;;;;;;;;5017226;28;20030;-57
2023/07/11 13:11:18;;;;;;;2.00;1.90;;;;;;;;;;5017385;28;20029;-57
2023/07/11 13:13:43;;;;;;;2.08;1.98;;;;;;;;;;5017736;28;20092;-57
2023/07/11 13:16:10;;;;;;;4.07;2.53;;;;;;;;;;5017913;28;20034;-57
2023/07/11 13:18:38;;;;;;;1.90;1.80;;;;;;;;;;5017307;28;20030;-57
2023/07/11 13:21:06;;;;;;;1.83;1.73;;;;;;;;;;5016943;28;20037;-57
2023/07/11 13:23:33;;;;;;;2.25;2.08;;;;;;;;;;5010645;28;20076;-57
2023/07/11 13:25:59;;;;;;;2.50;2.05;;;;;;;;;;5017058;28;20104;-57
2023/07/11 13:28:30;;;;;;;2.30;2.05;;;;;;;;;;5017590;28;20026;-57
2023/07/11 13:30:58;;;;;;;2.13;1.98;;;;;;;;;;5002677;28;20019;-57
2023/07/11 13:33:28;;;;;;;2.63;2.30;;;;;;;;;;4995859;28;20650;-57
2023/07/11 13:35:55;;;;;;;2.60;2.40;;;;;;;;;;4995658;28;20073;-57
2023/07/11 13:38:21;;;;;;;2.45;2.35;;;;;;;;;;4996696;28;20135;-57
2023/07/11 13:40:53;;;;;;;2.67;2.40;;;;;;;;;;4996504;28;20027;-57
2023/07/11 13:43:20;;;;;;;2.53;1.92;;;;;;;;;;4995463;28;20022;-57
2023/07/11 13:45:46;;;;;;;2.03;1.92;;;;;;;;;;4996138;28;20045;-57
2023/07/11 13:48:17;;;;;;;2.28;2.08;;;;;;;;;;4996588;28;20022;-57
2023/07/11 13:50:42;;;;;;;3.45;2.28;;;;;;;;;;4996434;28;20026;-57
2023/07/11 13:53:12;;;;;;;4.05;2.15;;;;;;;;;;4996449;28;20037;-57
2023/07/11 13:55:39;;;;;;;2.35;2.22;;;;;;;;;;4996529;28;20030;-57
2023/07/11 13:58:05;;;;;;;3.00;1.90;;;;;;;;;;4996304;28;20018;-57
2023/07/11 14:00:30;;;;;;;2.45;2.30;;;;;;;;;;4996397;28;20486;-57
2023/07/11 14:02:56;;;;;;;2.40;2.20;;;;;;;;;;5012564;28;20091;-57
2023/07/11 14:05:29;;;;;;;2.40;2.30;;;;;;;;;;5017923;28;20080;-57
2023/07/11 14:07:55;;;;;;;3.17;2.20;;;;;;;;;;5035467;28;20475;-57
2023/07/11 14:10:22;;;;;;;2.03;1.92;;;;;;;;;;5035367;28;20031;-57
2023/07/11 14:12:48;;;;;;;2.35;2.25;;;;;;;;;;5035069;28;20213;-57
2023/07/11 14:15:15;;;;;;;3.75;2.40;;;;;;;;;;5017712;28;20705;-57
2023/07/11 14:17:40;;;;;;;2.20;2.10;;;;;;;;;;5035690;28;20033;-57
2023/07/11 14:20:11;;;;;;;2.17;2.08;;;;;;;;;;5035285;28;20368;-57
2023/07/11 14:22:38;;;;;;;3.35;2.30;;;;;;;;;;5035172;28;20034;-57
2023/07/11 14:25:04;;;;;;;3.38;2.20;;;;;;;;;;5034718;28;20037;-57
2023/07/11 14:27:29;;;;;;;3.95;2.17;;;;;;;;;;5035011;28;20033;-57
2023/07/11 14:29:54;;;;;;;2.08;1.98;;;;;;;;;;5035169;28;20026;-57
2023/07/11 14:32:21;;;;;;;2.35;2.25;;;;;;;;;;5035086;28;20048;-57
2023/07/11 14:34:46;;;;;;;4.68;2.67;;;;;;;;;;5034933;28;20465;-57
2023/07/11 14:37:15;;;;;;;2.40;2.30;;;;;;;;;;5033507;28;20041;-61
2023/07/11 14:39:40;;;;;;;2.45;2.35;;;;;;;;;;5034957;28;20099;-65
2023/07/11 14:42:19;;;;;;;3.20;2.60;;;;;;;;;;5034388;28;20068;-65
2023/07/11 14:44:45;;;;;;;2.35;2.22;;;;;;;;;;5034811;28;20040;-65
2023/07/11 14:47:10;;;;;;;2.70;2.38;;;;;;;;;;5035058;28;20018;-65
2023/07/11 14:49:35;;;;;;;2.40;2.30;;;;;;;;;;5034831;28;20469;-65
2023/07/11 14:52:01;;;;;;;2.40;2.20;;;;;;;;;;5034750;28;20025;-65
2023/07/11 14:54:27;;;;;;;2.20;2.10;;;;;;;;;;5034432;28;20068;-65
2023/07/11 14:56:53;;;;;;;2.30;2.10;;;;;;;;;;5016834;28;20033;-65
2023/07/11 14:59:26;;;;;;;3.97;2.25;;;;;;;;;;5034527;28;20488;-65
2023/07/11 15:01:52;;;;;;;4.28;2.60;;;;;;;;;;5034597;28;20037;-61
2023/07/11 15:04:18;;;;;;;3.97;2.47;;;;;;;;;;5034154;28;20227;-61
2023/07/11 15:06:43;;;;;;;2.63;2.45;;;;;;;;;;5032917;28;20116;-61
2023/07/11 15:09:09;;;;;;;2.80;2.70;;;;;;;;;;5034321;28;20029;-61
2023/07/11 15:11:37;;;;;;;2.97;1.95;;;;;;;;;;5016199;28;20020;-61
2023/07/11 15:14:10;;;;;;;2.75;2.58;;;;;;;;;;5034399;28;20037;-60
2023/07/11 15:16:35;;;;;;;2.00;1.90;;;;;;;;;;5000241;28;20037;-60
2023/07/11 15:19:01;;;;;;;2.58;2.33;;;;;;;;;;5034116;28;20079;-61
2023/07/11 15:21:26;;;;;;;2.85;2.50;;;;;;;;;;5034161;28;20060;-60
2023/07/11 15:23:51;;;;;;;4.72;2.25;;;;;;;;;;5033957;28;20093;-61
2023/07/11 15:26:23;;;;;;;2.20;2.10;;;;;;;;;;5034087;28;20524;-61
2023/07/11 15:28:49;;;;;;;2.40;2.30;;;;;;;;;;5033921;28;20029;-61
2023/07/11 15:31:15;;;;;;;2.58;2.38;;;;;;;;;;5033490;28;20121;-61
2023/07/11 15:33:42;;;;;;;3.05;2.85;;;;;;;;;;5033942;28;20385;-61
2023/07/11 15:36:08;;;;;;;2.50;2.35;;;;;;;;;;5033570;28;20025;-60
2023/07/11 15:38:33;;;;;;;2.60;2.22;;;;;;;;;;5033571;28;20029;-60
2023/07/11 15:41:00;;;;;;;2.67;2.10;;;;;;;;;;5033732;28;20155;-60